createdAt,value
2023-03-24T00:01:12.081Z,12.70
2023-03-24T00:03:59.225Z,10.32
2023-03-24T00:06:44.983Z,19.83
2023-03-24T00:09:31.007Z,10.77
2023-03-24T00:12:18.563Z,13.27
2023-03-24T00:15:06.329Z,12.20
2023-03-24T00:17:52.184Z,10.65
2023-03-24T00:20:37.473Z,11.25
2023-03-24T00:23:23.609Z,12.02
2023-03-24T00:26:15.458Z,11.65
2023-03-24T00:29:02.137Z,11.55
2023-03-24T00:31:47.335Z,13.25
2023-03-24T00:34:36.503Z,8.20
2023-03-24T00:37:24.575Z,7.03
2023-03-24T00:40:16.595Z,6.45
2023-03-24T00:43:01.923Z,8.52
2023-03-24T00:45:47.698Z,9.48
2023-03-24T00:48:33.358Z,10.98
2023-03-24T00:51:18.551Z,7.70
2023-03-24T00:54:05.610Z,8.45
2023-03-24T00:56:55.824Z,9.57
2023-03-24T00:59:49.071Z,9.95
2023-03-24T01:02:34.313Z,6.72
2023-03-24T01:05:28.263Z,8.50
2023-03-24T01:08:15.503Z,9.15
2023-03-24T01:11:01.450Z,20.30
2023-03-24T01:13:47.576Z,7.38
2023-03-24T01:16:33.149Z,10.35
2023-03-24T01:19:21.493Z,11.60
2023-03-24T01:22:07.123Z,7.93
2023-03-24T01:24:53.109Z,12.48
2023-03-24T01:27:38.932Z,8.80
2023-03-24T01:30:27.541Z,9.63
2023-03-24T01:33:12.846Z,11.32
2023-03-24T01:35:58.476Z,11.85
2023-03-24T01:38:43.966Z,9.15
2023-03-24T01:41:36.329Z,7.50
2023-03-24T01:44:32.933Z,8.32
2023-03-24T01:47:18.790Z,8.68
2023-03-24T01:50:05.327Z,16.75
2023-03-24T01:52:51.104Z,13.00
2023-03-24T01:55:37.748Z,15.10
2023-03-24T01:58:28.110Z,6.63
2023-03-24T02:01:30.988Z,5.90
2023-03-24T02:04:46.838Z,5.32
2023-03-24T02:07:53.708Z,5.70
2023-03-24T02:10:40.134Z,12.20
2023-03-24T02:13:31.829Z,4.30
2023-03-24T02:16:38.297Z,11.20
2023-03-24T02:19:38.365Z,11.18
2023-03-24T02:22:55.357Z,13.48
2023-03-24T02:25:47.003Z,9.32
2023-03-24T02:28:41.304Z,10.18
2023-03-24T02:31:41.885Z,7.28
2023-03-24T02:34:49.992Z,12.30
2023-03-24T02:38:16.996Z,14.98
2023-03-24T02:41:20.756Z,14.30
2023-03-24T02:44:24.706Z,13.15
2023-03-24T02:47:41.961Z,12.20
2023-03-24T02:50:42.967Z,13.05
2023-03-24T02:53:59.379Z,14.20
2023-03-24T02:57:07.073Z,12.55
2023-03-24T03:00:47.663Z,19.80
2023-03-24T03:04:12.832Z,18.25
2023-03-24T03:07:00.768Z,11.15
2023-03-24T03:09:53.149Z,15.93
2023-03-24T03:12:40.420Z,25.30
2023-03-24T03:15:35.951Z,19.08
2023-03-24T03:18:33.768Z,13.30
2023-03-24T03:21:23.726Z,14.98
2023-03-24T03:24:33.649Z,18.15
2023-03-24T03:27:27.362Z,13.80
2023-03-24T03:30:18.638Z,16.45
2023-03-24T03:33:13.913Z,13.10
2023-03-24T03:36:24.005Z,13.63
2023-03-24T03:39:16.791Z,14.70
2023-03-24T03:42:06.835Z,17.50
2023-03-24T03:44:55.566Z,13.13
2023-03-24T03:47:47.490Z,17.55
2023-03-24T03:50:35.071Z,16.23
2023-03-24T03:53:31.771Z,16.60
2023-03-24T03:56:23.464Z,15.93
2023-03-24T03:59:40.624Z,20.55
2023-03-24T04:02:53.880Z,27.33
2023-03-24T04:05:48.475Z,28.85
2023-03-24T04:08:50.210Z,18.90
2023-03-24T04:11:59.372Z,31.45
2023-03-24T04:15:11.794Z,24.50
2023-03-24T04:18:31.802Z,28.30
2023-03-24T04:21:58.396Z,31.67
2023-03-24T04:24:54.912Z,22.17
2023-03-24T04:27:56.950Z,31.48
2023-03-24T04:30:56.017Z,28.55
2023-03-24T04:34:03.058Z,29.88
2023-03-24T04:37:04.260Z,38.53
2023-03-24T04:40:11.826Z,43.40
2023-03-24T04:43:04.499Z,35.45
2023-03-24T04:45:50.708Z,35.55
2023-03-24T04:48:50.290Z,31.80
2023-03-24T04:51:45.137Z,38.05
2023-03-24T04:54:36.885Z,25.48
2023-03-24T04:57:25.062Z,38.53
2023-03-24T05:00:17.057Z,28.92
2023-03-24T05:03:03.558Z,39.00
2023-03-24T05:05:51.345Z,40.55
2023-03-24T05:08:36.933Z,34.42
2023-03-24T05:11:22.608Z,24.45
2023-03-24T05:14:20.051Z,38.65
2023-03-24T05:17:05.392Z,42.58
2023-03-24T05:19:53.482Z,44.65
2023-03-24T05:22:41.654Z,38.05
2023-03-24T05:25:27.548Z,39.22
2023-03-24T05:28:12.952Z,28.10
2023-03-24T05:30:58.446Z,26.42
2023-03-24T05:34:00.436Z,31.80
2023-03-24T05:36:47.065Z,36.80
2023-03-24T05:39:34.632Z,33.58
2023-03-24T05:42:55.178Z,31.17
2023-03-24T05:45:44.548Z,35.50
2023-03-24T05:48:37.464Z,36.58
2023-03-24T05:51:30.724Z,32.70
2023-03-24T05:54:22.097Z,35.38
2023-03-24T05:57:15.050Z,25.17
2023-03-24T06:00:20.536Z,28.98
2023-03-24T06:03:34.809Z,27.80
2023-03-24T06:06:45.737Z,33.10
2023-03-24T06:09:37.620Z,25.23
2023-03-24T06:12:24.683Z,31.48
2023-03-24T06:15:19.972Z,26.88
2023-03-24T06:18:07.921Z,33.67
2023-03-24T06:20:56.460Z,34.47
2023-03-24T06:23:46.719Z,30.75
2023-03-24T06:26:34.906Z,31.17
2023-03-24T06:29:21.272Z,31.23
2023-03-24T06:32:06.689Z,28.20
2023-03-24T06:34:59.799Z,28.63
2023-03-24T06:38:01.829Z,27.02
2023-03-24T06:40:47.372Z,25.75
2023-03-24T06:43:34.174Z,30.65
2023-03-24T06:46:19.881Z,31.75
2023-03-24T06:49:08.380Z,26.75
2023-03-24T06:51:55.281Z,28.13
2023-03-24T06:54:42.253Z,29.63
2023-03-24T06:57:28.894Z,26.20
2023-03-24T07:00:45.096Z,23.77
2023-03-24T07:03:51.145Z,21.25
2023-03-24T07:07:05.119Z,30.70
2023-03-24T07:15:31.682Z,17.17
2023-03-24T07:18:19.339Z,22.38
2023-03-24T07:21:11.863Z,23.85
2023-03-24T07:23:57.405Z,30.15
2023-03-24T07:26:54.480Z,18.70
2023-03-24T07:29:42.428Z,23.98
2023-03-24T07:32:42.574Z,27.05
2023-03-24T07:35:31.793Z,18.30
2023-03-24T07:38:20.112Z,34.88
2023-03-24T07:41:08.756Z,31.02
2023-03-24T07:43:58.300Z,28.75
2023-03-24T07:46:44.263Z,23.48
2023-03-24T07:49:29.623Z,21.35
2023-03-24T07:52:27.396Z,24.10
2023-03-24T07:55:15.798Z,21.02
2023-03-24T07:58:18.636Z,26.58
2023-03-24T08:01:19.948Z,20.83
2023-03-24T08:04:07.689Z,26.77
2023-03-24T08:07:19.696Z,22.42
2023-03-24T08:10:05.344Z,20.05
2023-03-24T08:12:51.141Z,17.67
2023-03-24T08:15:36.411Z,28.60
2023-03-24T08:18:24.281Z,17.23
2023-03-24T08:21:09.556Z,19.23
2023-03-24T08:23:55.111Z,19.13
2023-03-24T08:26:42.720Z,24.85
2023-03-24T08:29:28.023Z,30.17
2023-03-24T08:32:13.826Z,24.27
2023-03-24T08:34:59.453Z,15.27
2023-03-24T08:37:45.603Z,18.15
2023-03-24T08:40:31.845Z,22.33
2023-03-24T08:43:24.819Z,17.77
2023-03-24T08:46:13.277Z,17.90
2023-03-24T08:49:00.373Z,22.33
2023-03-24T08:51:46.322Z,18.98
2023-03-24T08:54:39.784Z,16.58
2023-03-24T08:57:25.495Z,21.33
2023-03-24T09:00:14.948Z,22.33
2023-03-24T09:03:03.712Z,14.57
2023-03-24T09:05:49.242Z,17.10
2023-03-24T09:08:34.579Z,15.98
2023-03-24T09:11:21.406Z,14.00
2023-03-24T09:14:06.441Z,19.10
2023-03-24T09:16:52.803Z,21.25
2023-03-24T09:19:40.841Z,20.50
2023-03-24T09:22:26.433Z,20.55
2023-03-24T09:25:15.488Z,20.67
2023-03-24T09:28:01.710Z,18.27
2023-03-24T09:30:47.166Z,25.48
2023-03-24T09:33:34.816Z,17.05
2023-03-24T09:36:21.086Z,26.27
2023-03-24T09:39:09.241Z,29.02
2023-03-24T09:41:56.042Z,23.25
2023-03-24T09:44:44.736Z,24.80
2023-03-24T09:47:30.760Z,25.75
2023-03-24T09:50:23.952Z,24.58
2023-03-24T09:53:21.462Z,22.30
2023-03-24T09:56:14.357Z,26.63
2023-03-24T09:59:16.444Z,17.95
2023-03-24T10:02:04.791Z,18.98
2023-03-24T10:04:50.500Z,19.42
2023-03-24T10:08:11.396Z,30.98
2023-03-24T10:11:38.272Z,22.67
2023-03-24T10:14:46.836Z,19.80
2023-03-24T10:18:10.989Z,17.17
2023-03-24T10:21:25.004Z,20.25
2023-03-24T10:24:20.664Z,20.13
2023-03-24T10:27:29.845Z,22.27
2023-03-24T10:30:24.994Z,26.30
2023-03-24T10:33:15.289Z,23.15
2023-03-24T10:36:12.872Z,20.95
2023-03-24T10:39:01.880Z,24.00
2023-03-24T10:41:54.706Z,18.42
2023-03-24T10:44:40.832Z,18.60
2023-03-24T10:47:30.715Z,15.60
2023-03-24T10:50:18.130Z,14.23
2023-03-24T10:53:18.555Z,14.20
2023-03-24T10:56:04.949Z,18.52
2023-03-24T10:58:50.429Z,20.83
2023-03-24T11:01:41.187Z,16.90
2023-03-24T11:04:28.117Z,19.45
2023-03-24T11:07:22.798Z,10.27
2023-03-24T11:10:13.790Z,14.70
2023-03-24T11:13:04.072Z,23.23
2023-03-24T11:16:12.047Z,15.52
2023-03-24T11:19:01.204Z,15.05
2023-03-24T11:21:50.790Z,14.85
2023-03-24T11:24:38.470Z,17.20
2023-03-24T11:27:24.356Z,19.27
2023-03-24T11:30:14.234Z,15.45
2023-03-24T11:33:00.284Z,16.73
2023-03-24T11:35:50.320Z,14.63
2023-03-24T11:38:41.528Z,11.45
2023-03-24T11:41:28.281Z,6.40
2023-03-24T11:44:23.086Z,12.13
2023-03-24T11:47:24.461Z,13.50
2023-03-24T11:50:17.582Z,17.17
2023-03-24T11:53:18.609Z,14.20
2023-03-24T11:56:21.221Z,13.52
2023-03-24T11:59:31.449Z,12.02
2023-03-24T12:02:17.089Z,8.65
2023-03-24T12:05:51.246Z,18.30
2023-03-24T12:09:14.102Z,8.00
2023-03-24T12:12:08.078Z,12.35
2023-03-24T12:15:06.444Z,6.13
2023-03-24T12:18:05.850Z,12.50
2023-03-24T12:21:11.097Z,19.35
2023-03-24T12:24:06.103Z,12.38
2023-03-24T12:26:58.260Z,13.32
2023-03-24T12:30:37.997Z,13.30
2023-03-24T12:33:34.066Z,16.27
2023-03-24T12:37:06.109Z,16.45
2023-03-24T12:40:10.819Z,12.00
2023-03-24T12:43:40.164Z,13.52
2023-03-24T12:46:48.561Z,22.08
2023-03-24T12:49:55.943Z,15.15
2023-03-24T12:52:58.046Z,11.95
2023-03-24T12:56:01.590Z,12.15
2023-03-24T12:59:02.808Z,10.23
2023-03-24T13:01:53.808Z,20.65
2023-03-24T13:04:42.789Z,16.33
2023-03-24T13:07:31.717Z,14.82
2023-03-24T13:10:40.973Z,20.83
2023-03-24T13:13:34.235Z,17.17
2023-03-24T13:16:27.817Z,22.08
2023-03-24T13:19:21.591Z,11.75
2023-03-24T13:22:18.280Z,13.32
2023-03-24T13:25:10.462Z,8.88
2023-03-24T13:28:01.933Z,11.25
2023-03-24T13:30:48.170Z,9.38
2023-03-24T13:33:37.146Z,12.07
2023-03-24T13:39:28.127Z,7.72
2023-03-24T13:42:31.927Z,6.50
2023-03-24T13:45:47.714Z,6.43
2023-03-24T13:48:39.671Z,7.18
2023-03-24T13:51:29.768Z,10.55
2023-03-24T13:54:22.805Z,11.45
2023-03-24T13:57:20.687Z,11.95
2023-03-24T14:00:12.214Z,11.85
2023-03-24T14:03:32.286Z,13.05
2023-03-24T14:06:18.244Z,10.82
2023-03-24T14:09:06.070Z,14.73
2023-03-24T14:12:19.500Z,15.13
2023-03-24T14:15:17.949Z,21.23
2023-03-24T14:18:15.863Z,22.63
2023-03-24T14:21:04.449Z,12.15
2023-03-24T14:23:52.653Z,10.85
2023-03-24T14:26:38.548Z,11.95
2023-03-24T14:29:40.225Z,15.88
2023-03-24T14:32:26.857Z,19.42
2023-03-24T14:35:32.530Z,18.85
2023-03-24T14:38:26.234Z,13.00
2023-03-24T14:41:17.297Z,17.80
2023-03-24T14:44:02.849Z,23.38
2023-03-24T14:46:50.404Z,16.92
2023-03-24T14:49:38.225Z,19.60
2023-03-24T14:52:27.604Z,14.68
2023-03-24T14:55:19.487Z,13.93
2023-03-24T14:58:22.841Z,12.90
2023-03-24T15:01:10.932Z,17.55
2023-03-24T15:04:07.476Z,14.93
2023-03-24T15:06:52.850Z,15.63
2023-03-24T15:09:38.700Z,14.70
2023-03-24T15:12:25.170Z,11.23
2023-03-24T15:15:23.164Z,17.77
2023-03-24T15:18:16.996Z,18.15
2023-03-24T15:21:14.478Z,8.75
2023-03-24T15:24:06.382Z,14.27
2023-03-24T15:27:13.529Z,13.15
2023-03-24T15:30:04.274Z,16.70
2023-03-24T15:32:50.426Z,9.90
2023-03-24T15:35:35.928Z,14.93
2023-03-24T15:38:28.005Z,15.82
2023-03-24T15:41:15.902Z,13.98
2023-03-24T15:44:01.332Z,16.38
2023-03-24T15:46:48.275Z,15.63
2023-03-24T15:49:35.597Z,16.20
2023-03-24T15:52:31.581Z,15.13
2023-03-24T15:55:43.789Z,15.25
2023-03-24T15:58:36.460Z,18.23
2023-03-24T16:01:31.335Z,17.45
2023-03-24T16:04:20.530Z,21.00
2023-03-24T16:07:05.988Z,21.20
2023-03-24T16:10:05.975Z,19.38
2023-03-24T16:12:51.898Z,15.05
2023-03-24T16:15:37.343Z,15.82
2023-03-24T16:18:28.900Z,17.92
2023-03-24T16:21:17.814Z,14.20
2023-03-24T16:24:02.933Z,17.00
2023-03-24T16:26:48.932Z,12.35
2023-03-24T16:29:34.544Z,15.52
2023-03-24T16:32:19.962Z,19.67
2023-03-24T16:35:06.003Z,17.75
2023-03-24T16:37:52.551Z,14.57
2023-03-24T16:40:50.764Z,15.15
2023-03-24T16:43:36.750Z,16.77
2023-03-24T16:46:28.465Z,13.52
2023-03-24T16:49:19.162Z,14.75
2023-03-24T16:52:04.857Z,15.35
2023-03-24T16:54:50.527Z,10.82
2023-03-24T16:57:37.454Z,15.80
2023-03-24T17:00:26.953Z,16.90
2023-03-24T17:03:13.952Z,14.65
2023-03-24T17:05:59.867Z,13.40
2023-03-24T17:08:46.082Z,14.00
2023-03-24T17:11:43.112Z,13.05
2023-03-24T17:14:30.936Z,20.42
2023-03-24T17:17:16.136Z,15.82
2023-03-24T17:20:05.574Z,17.35
2023-03-24T17:22:53.965Z,18.33
2023-03-24T17:25:39.855Z,18.58
2023-03-24T17:28:25.271Z,17.40
2023-03-24T17:31:10.881Z,17.67
2023-03-24T17:33:59.162Z,17.27
2023-03-24T17:36:46.329Z,16.50
2023-03-24T17:39:31.922Z,22.33
2023-03-24T17:42:17.329Z,19.98
2023-03-24T17:45:04.066Z,13.68
2023-03-24T17:47:50.058Z,19.98
2023-03-24T17:50:35.778Z,16.23
2023-03-24T17:53:25.680Z,16.10
2023-03-24T17:56:11.686Z,16.70
2023-03-24T17:58:59.284Z,17.40
2023-03-24T18:01:44.953Z,12.90
2023-03-24T18:04:30.518Z,12.18
2023-03-24T18:07:15.720Z,22.10
2023-03-24T18:10:01.441Z,12.43
2023-03-24T18:12:47.344Z,13.73
2023-03-24T18:15:34.479Z,9.20
2023-03-24T18:18:19.919Z,16.35
2023-03-24T18:21:09.605Z,15.60
2023-03-24T18:23:58.577Z,15.43
2023-03-24T18:26:44.330Z,10.23
2023-03-24T18:29:30.339Z,11.80
2023-03-24T18:32:15.773Z,14.82
2023-03-24T18:35:01.619Z,14.90
2023-03-24T18:37:47.168Z,18.27
2023-03-24T18:40:32.812Z,14.63
2023-03-24T18:43:18.086Z,15.40
2023-03-24T18:46:10.648Z,15.45
2023-03-24T18:48:57.868Z,14.25
2023-03-24T18:51:45.099Z,10.80
2023-03-24T18:54:30.618Z,18.40
2023-03-24T18:57:16.551Z,13.82
2023-03-24T19:00:02.038Z,12.18
2023-03-24T19:02:47.528Z,15.93
2023-03-24T19:05:33.598Z,19.77
2023-03-24T19:08:22.370Z,13.80
2023-03-24T19:11:09.000Z,14.63
2023-03-24T19:14:00.742Z,21.48
2023-03-24T19:16:46.309Z,9.80
2023-03-24T19:19:32.384Z,17.00
2023-03-24T19:22:22.215Z,13.32
2023-03-24T19:25:09.429Z,15.90
2023-03-24T19:27:54.860Z,14.23
2023-03-24T19:30:40.685Z,24.02
2023-03-24T19:33:29.518Z,14.25
2023-03-24T19:36:15.490Z,16.55
2023-03-24T19:39:04.687Z,17.65
2023-03-24T19:41:50.706Z,20.48
2023-03-24T19:44:36.445Z,21.50
2023-03-24T19:47:24.737Z,15.88
2023-03-24T19:50:10.855Z,18.73
2023-03-24T19:52:56.521Z,15.80
2023-03-24T19:55:42.059Z,15.13
2023-03-24T19:58:27.895Z,8.60
2023-03-24T20:01:14.534Z,13.60
2023-03-24T20:04:00.329Z,15.20
2023-03-24T20:06:45.816Z,12.07
2023-03-24T20:09:30.945Z,13.10
2023-03-24T20:12:16.781Z,16.33
2023-03-24T20:15:02.406Z,10.80
2023-03-24T20:17:48.060Z,15.18
2023-03-24T20:20:33.533Z,14.77
2023-03-24T20:23:18.966Z,11.80
2023-03-24T20:26:05.077Z,14.45
2023-03-24T20:28:57.099Z,9.05
2023-03-24T20:31:42.959Z,11.20
2023-03-24T20:34:31.918Z,7.90
2023-03-24T20:37:17.893Z,17.45
2023-03-24T20:40:05.645Z,14.68
2023-03-24T20:42:52.599Z,13.48
2023-03-24T20:45:38.364Z,11.13
2023-03-24T20:48:24.863Z,16.33
2023-03-24T20:51:10.884Z,17.25
2023-03-24T20:53:56.239Z,13.85
2023-03-24T20:56:41.594Z,14.57
2023-03-24T20:59:26.859Z,21.13
2023-03-24T21:02:12.718Z,24.02
2023-03-24T21:04:58.337Z,16.88
2023-03-24T21:07:46.976Z,22.70
2023-03-24T21:10:36.082Z,18.92
2023-03-24T21:13:21.852Z,28.38
2023-03-24T21:16:11.894Z,15.73
2023-03-24T21:18:59.037Z,18.80
2023-03-24T21:21:49.584Z,20.48
2023-03-24T21:24:35.162Z,17.55
2023-03-24T21:27:21.284Z,13.80
2023-03-24T21:30:08.081Z,20.83
2023-03-24T21:32:55.892Z,15.88
2023-03-24T21:35:41.585Z,17.48
2023-03-24T21:38:27.486Z,15.82
2023-03-24T21:41:12.936Z,16.00
2023-03-24T21:44:00.634Z,16.25
2023-03-24T21:46:48.209Z,17.85
2023-03-24T21:49:36.488Z,17.77
2023-03-24T21:52:21.860Z,18.83
2023-03-24T21:55:08.523Z,18.75
2023-03-24T21:57:55.982Z,21.48
2023-03-24T22:00:41.172Z,15.35
2023-03-24T22:03:27.158Z,15.27
2023-03-24T22:06:12.918Z,14.35
2023-03-24T22:08:58.531Z,13.32
2023-03-24T22:11:45.397Z,14.27
2023-03-24T22:14:31.251Z,14.88
2023-03-24T22:17:16.679Z,18.52
2023-03-24T22:20:06.032Z,15.32
2023-03-24T22:22:51.983Z,14.52
2023-03-24T22:25:37.644Z,22.13
2023-03-24T22:28:23.384Z,15.20
2023-03-24T22:31:15.100Z,21.75
2023-03-24T22:34:00.717Z,13.52
2023-03-24T22:36:46.537Z,14.98
2023-03-24T22:39:33.957Z,17.27
2023-03-24T22:42:19.608Z,16.55
2023-03-24T22:45:11.480Z,17.77
2023-03-24T22:47:56.780Z,12.43
2023-03-24T22:50:42.337Z,17.23
2023-03-24T22:53:28.001Z,19.27
2023-03-24T22:56:15.009Z,13.25
2023-03-24T22:59:00.780Z,13.48
2023-03-24T23:02:02.466Z,16.10
2023-03-24T23:04:54.997Z,15.35
2023-03-24T23:07:42.040Z,20.15
2023-03-24T23:10:32.321Z,22.85
2023-03-24T23:13:17.970Z,19.20
2023-03-24T23:16:03.611Z,17.02
2023-03-24T23:18:49.217Z,18.33
2023-03-24T23:21:35.093Z,19.65
2023-03-24T23:24:20.558Z,23.27
2023-03-24T23:27:06.611Z,18.38
2023-03-24T23:29:53.358Z,18.70
2023-03-24T23:32:41.231Z,20.67
2023-03-24T23:35:26.744Z,19.30
2023-03-24T23:38:12.592Z,24.58
2023-03-24T23:40:57.858Z,15.68
2023-03-24T23:43:43.763Z,17.83
2023-03-24T23:46:29.420Z,24.90
2023-03-24T23:49:15.506Z,19.60
2023-03-24T23:52:01.003Z,23.08
2023-03-24T23:54:46.582Z,27.48
2023-03-24T23:57:32.775Z,19.35
